RPLL/MNL METAR and TAF weather

Enter ICAO airport designator
Station Type Date Time Source
RPLL METAR 2021/09/16 10:00 UTC NOAA

RPLL 161000Z VRB02KT 9999 SCT023 BKN100 29/25 Q1008 NOSIG RMK A2977


Station Type Date Time Source
RPLL Decoded METAR 2021/09/16 10:00 UTC NOAA

Ninoy Aquino Inter-National Airport, Philippines (RPLL) 14-31N 121-00E 15M
Sep 16, 2021 - 06:00 AM EDT / 2021.09.16 1000 UTC
Wind: Variable at 2 MPH (2 KT):0
Visibility: greater than 7 mile(s):0
Sky conditions: mostly cloudy
Temperature: 84 F (29 C)
Dew Point: 77 F (25 C)
Relative Humidity: 79%
Pressure (altimeter): 29.77 in. Hg (1008 hPa)
ob: RPLL 161000Z VRB02KT 9999 SCT023 BKN100 29/25 Q1008 NOSIG RMK A2977
cycle: 10

Station Type Date Time Source
RPLL TAF 2021/09/16 06:21 UTC NOAA

TAF RPLL 160500Z 1606/1712 09006KT 9999 FEW025 SCT300 TX32/1606Z TN26/1622Z
TEMPO 1606/1612 12007KT 8000 -TSRA FEW022CB SCT023 BKN090
TEMPO 1706/1712 VRB04KT FEW023 BKN100

Example: see airport list